createdAt,value
2019-04-20T00:00:04.314Z,98.30
2019-04-20T00:04:59.095Z,98.30
2019-04-20T00:10:02.589Z,98.60
2019-04-20T00:14:54.144Z,98.90
2019-04-20T00:19:53.834Z,99.40
2019-04-20T00:25:11.870Z,99.90
2019-04-20T00:30:32.492Z,99.90
2019-04-20T00:35:10.466Z,99.90
2019-04-20T00:40:10.017Z,99.90
2019-04-20T00:45:12.933Z,99.90
2019-04-20T00:50:19.580Z,99.90
2019-04-20T00:55:02.407Z,99.90
2019-04-20T01:00:17.592Z,99.90
2019-04-20T01:05:20.212Z,99.90
2019-04-20T01:10:06.971Z,99.90
2019-04-20T01:15:07.422Z,99.90
2019-04-20T01:20:02.510Z,99.90
2019-04-20T01:25:06.694Z,99.90
2019-04-20T01:30:05.870Z,99.90
2019-04-20T01:35:05.910Z,99.90
2019-04-20T01:39:55.423Z,99.90
2019-04-20T01:44:50.815Z,99.90
2019-04-20T01:49:47.751Z,99.90
2019-04-20T01:55:05.929Z,99.90
2019-04-20T01:59:59.722Z,99.90
2019-04-20T02:04:52.553Z,99.90
2019-04-20T02:09:53.446Z,99.90
2019-04-20T02:14:52.473Z,99.90
2019-04-20T02:20:04.609Z,99.90
2019-04-20T02:24:42.830Z,99.90
2019-04-20T02:30:07.614Z,99.90
2019-04-20T02:35:36.171Z,99.90
2019-04-20T02:40:45.186Z,99.90
2019-04-20T02:45:50.507Z,99.90
2019-04-20T02:55:26.665Z,99.90
2019-04-20T03:00:16.713Z,99.90
2019-04-20T03:04:56.180Z,99.90
2019-04-20T03:10:04.019Z,99.90
2019-04-20T03:14:57.450Z,99.90
2019-04-20T03:19:52.581Z,99.90
2019-04-20T03:25:02.004Z,99.90
2019-04-20T03:30:07.685Z,99.90
2019-04-20T03:35:12.185Z,99.90
2019-04-20T03:39:52.628Z,99.90
2019-04-20T03:44:38.869Z,99.90
2019-04-20T03:50:14.643Z,99.90
2019-04-20T03:55:26.395Z,99.90
2019-04-20T04:00:42.482Z,99.90
2019-04-20T04:05:46.927Z,99.90
2019-04-20T04:10:54.771Z,99.90
2019-04-20T04:15:42.105Z,99.90
2019-04-20T04:20:43.210Z,99.90
2019-04-20T04:25:54.158Z,99.90
2019-04-20T04:30:57.960Z,99.90
2019-04-20T04:35:51.547Z,99.90
2019-04-20T04:45:51.373Z,99.90
2019-04-20T04:50:56.280Z,99.90
2019-04-20T04:55:52.906Z,99.90
2019-04-20T05:00:44.486Z,99.90
2019-04-20T05:06:23.182Z,99.90
2019-04-20T05:11:13.022Z,99.90
2019-04-20T05:16:27.846Z,99.90
2019-04-20T05:21:47.690Z,99.90
2019-04-20T05:26:58.244Z,99.90
2019-04-20T05:31:40.407Z,99.90
2019-04-20T05:36:50.321Z,99.90
2019-04-20T05:41:48.284Z,99.90
2019-04-20T05:46:48.110Z,99.90
2019-04-20T05:51:44.381Z,99.90
2019-04-20T05:56:46.792Z,99.90
2019-04-20T06:01:47.822Z,99.90
2019-04-20T06:06:43.349Z,99.90
2019-04-20T06:11:44.751Z,99.00
2019-04-20T06:16:45.773Z,98.20
2019-04-20T06:21:41.546Z,97.70
2019-04-20T06:31:58.081Z,95.60
2019-04-20T06:36:47.250Z,95.20
2019-04-20T06:42:02.357Z,93.10
2019-04-20T06:46:43.131Z,91.80
2019-04-20T06:51:47.633Z,91.60
2019-04-20T06:56:44.827Z,89.10
2019-04-20T07:01:51.498Z,87.30
2019-04-20T07:11:38.987Z,84.40
2019-04-20T07:16:55.724Z,83.20
2019-04-20T07:27:01.677Z,80.10
2019-04-20T07:31:58.473Z,77.90
2019-04-20T07:37:25.730Z,72.10
2019-04-20T07:42:08.465Z,68.80
2019-04-20T07:47:11.738Z,61.50
2019-04-20T07:51:47.077Z,52.40
2019-04-20T07:56:58.720Z,49.90
2019-04-20T08:02:28.587Z,46.90
2019-04-20T08:07:03.406Z,45.30
2019-04-20T08:12:25.644Z,46.00
2019-04-20T08:22:19.937Z,42.60
2019-04-20T08:27:05.779Z,42.20
2019-04-20T08:32:23.677Z,40.90
2019-04-20T08:37:22.294Z,40.60
2019-04-20T08:42:22.374Z,41.50
2019-04-20T08:47:27.628Z,37.70
2019-04-20T08:52:38.168Z,36.80
2019-04-20T08:57:01.348Z,39.50
2019-04-20T09:01:57.928Z,38.90
2019-04-20T09:07:05.553Z,39.00
2019-04-20T09:12:11.566Z,40.30
2019-04-20T09:16:59.739Z,38.90
2019-04-20T09:22:12.153Z,37.90
2019-04-20T09:27:08.725Z,38.50
2019-04-20T09:32:21.273Z,38.20
2019-04-20T09:37:29.698Z,39.10
2019-04-20T09:42:24.150Z,37.70
2019-04-20T09:47:27.418Z,37.30
2019-04-20T09:52:32.194Z,37.40
2019-04-20T09:57:35.058Z,35.80
2019-04-20T10:02:23.149Z,33.50
2019-04-20T10:07:17.584Z,32.90
2019-04-20T10:12:11.243Z,31.50
2019-04-20T10:17:07.776Z,30.80
2019-04-20T10:22:04.728Z,30.50
2019-04-20T10:27:02.892Z,29.10
2019-04-20T10:32:02.632Z,27.50
2019-04-20T10:37:17.479Z,26.40
2019-04-20T10:42:14.286Z,26.90
2019-04-20T10:47:11.274Z,26.20
2019-04-20T10:52:07.839Z,25.50
2019-04-20T10:57:05.609Z,25.00
2019-04-20T11:02:03.524Z,23.90
2019-04-20T11:07:00.849Z,22.90
2019-04-20T11:11:58.576Z,24.10
2019-04-20T11:16:54.520Z,22.80
2019-04-20T11:21:50.617Z,23.10
2019-04-20T11:26:46.927Z,23.00
2019-04-20T11:31:49.488Z,22.70
2019-04-20T11:36:41.212Z,22.70
2019-04-20T11:41:37.288Z,22.40
2019-04-20T11:46:36.523Z,22.00
2019-04-20T11:51:33.792Z,20.70
2019-04-20T11:56:34.825Z,20.80
2019-04-20T12:01:52.169Z,19.40
2019-04-20T12:06:45.014Z,19.10
2019-04-20T12:11:56.182Z,19.70
2019-04-20T12:16:39.621Z,19.40
2019-04-20T12:21:36.896Z,19.40
2019-04-20T12:26:33.291Z,18.90
2019-04-20T12:31:29.436Z,18.50
2019-04-20T12:36:26.093Z,18.60
2019-04-20T12:41:34.519Z,18.40
2019-04-20T12:46:22.984Z,18.30
2019-04-20T12:51:19.651Z,18.40
2019-04-20T12:56:16.806Z,18.00
2019-04-20T13:01:17.777Z,17.00
2019-04-20T13:06:14.083Z,16.70
2019-04-20T13:11:16.763Z,17.30
2019-04-20T13:16:18.456Z,17.70
2019-04-20T13:21:14.389Z,17.40
2019-04-20T13:26:11.898Z,17.60
2019-04-20T13:31:08.127Z,18.20
2019-04-20T13:36:04.452Z,16.60
2019-04-20T13:41:02.014Z,16.60
2019-04-20T13:45:59.156Z,17.10
2019-04-20T13:50:56.047Z,17.00
2019-04-20T13:55:52.102Z,16.10
2019-04-20T14:01:12.823Z,15.80
2019-04-20T14:06:09.052Z,15.90
2019-04-20T14:11:05.319Z,15.80
2019-04-20T14:16:01.270Z,16.10
2019-04-20T14:20:58.293Z,15.60
2019-04-20T14:25:54.679Z,15.90
2019-04-20T14:30:51.867Z,16.00
2019-04-20T14:35:48.394Z,15.80
2019-04-20T14:40:44.440Z,15.50
2019-04-20T14:45:40.803Z,15.50
2019-04-20T14:50:38.056Z,15.40
2019-04-20T14:55:35.422Z,14.50
2019-04-20T15:01:06.751Z,15.70
2019-04-20T15:06:03.382Z,15.40
2019-04-20T15:11:01.084Z,15.00
2019-04-20T15:15:57.096Z,15.10
2019-04-20T15:20:55.541Z,14.90
2019-04-20T15:25:52.763Z,15.70
2019-04-20T15:30:50.034Z,16.00
2019-04-20T15:35:46.175Z,15.80
2019-04-20T15:40:42.002Z,16.40
2019-04-20T15:45:39.128Z,15.90
2019-04-20T15:50:35.974Z,16.20
2019-04-20T15:55:37.877Z,16.30
2019-04-20T16:00:30.375Z,16.30
2019-04-20T16:05:47.276Z,16.40
2019-04-20T16:10:45.363Z,16.50
2019-04-20T16:15:43.362Z,16.00
2019-04-20T16:20:53.593Z,15.60
2019-04-20T16:26:08.175Z,14.80
2019-04-20T16:31:07.009Z,13.90
2019-04-20T16:36:02.630Z,13.50
2019-04-20T16:41:00.039Z,13.20
2019-04-20T16:45:57.161Z,12.80
2019-04-20T16:50:53.350Z,13.10
2019-04-20T16:55:50.596Z,13.30
2019-04-20T17:00:47.939Z,13.80
2019-04-20T17:05:45.221Z,14.90
2019-04-20T17:10:41.502Z,16.50
2019-04-20T17:15:39.353Z,17.20
2019-04-20T17:20:36.698Z,16.90
2019-04-20T17:25:34.018Z,17.40
2019-04-20T17:30:50.873Z,17.80
2019-04-20T17:35:55.119Z,20.40
2019-04-20T17:40:59.958Z,22.00
2019-04-20T17:45:53.300Z,24.10
2019-04-20T17:51:04.634Z,26.20
2019-04-20T17:55:47.958Z,27.30
2019-04-20T18:00:58.204Z,29.30
2019-04-20T18:06:14.708Z,30.00
2019-04-20T18:11:01.836Z,31.00
2019-04-20T18:16:12.863Z,32.80
2019-04-20T18:21:17.016Z,33.90
2019-04-20T18:26:31.720Z,34.90
2019-04-20T18:31:23.959Z,35.20
2019-04-20T18:36:27.342Z,36.00
2019-04-20T18:41:26.837Z,36.80
2019-04-20T18:46:31.627Z,37.40
2019-04-20T18:51:17.535Z,38.90
2019-04-20T18:56:16.976Z,39.10
2019-04-20T19:01:12.931Z,39.70
2019-04-20T19:06:10.622Z,40.80
2019-04-20T19:11:11.656Z,41.50
2019-04-20T19:16:30.651Z,42.80
2019-04-20T19:21:21.197Z,43.50
2019-04-20T19:26:21.276Z,44.30
2019-04-20T19:31:29.017Z,44.90
2019-04-20T19:36:23.353Z,46.10
2019-04-20T19:41:25.419Z,46.30
2019-04-20T19:46:46.384Z,46.60
2019-04-20T19:51:29.919Z,47.30
2019-04-20T19:56:22.546Z,47.90
2019-04-20T20:01:05.309Z,48.80
2019-04-20T20:06:03.598Z,49.60
2019-04-20T20:11:03.153Z,50.60
2019-04-20T20:16:08.921Z,50.90
2019-04-20T20:21:10.973Z,51.40
2019-04-20T20:25:57.446Z,52.20
2019-04-20T20:31:04.613Z,53.50
2019-04-20T20:36:02.212Z,54.20
2019-04-20T20:40:57.878Z,55.60
2019-04-20T20:46:01.279Z,56.80
2019-04-20T20:51:06.440Z,59.80
2019-04-20T20:55:48.692Z,60.80
2019-04-20T21:00:54.390Z,62.40
2019-04-20T21:05:40.196Z,64.20
2019-04-20T21:10:42.359Z,67.10
2019-04-20T21:15:35.190Z,70.40
2019-04-20T21:20:54.064Z,71.20
2019-04-20T21:25:59.006Z,74.10
2019-04-20T21:30:59.899Z,75.70
2019-04-20T21:35:55.133Z,77.90
2019-04-20T21:41:02.217Z,78.60
2019-04-20T21:45:56.423Z,79.40
2019-04-20T21:51:01.622Z,80.00
2019-04-20T21:55:46.021Z,79.70
2019-04-20T22:01:10.925Z,80.00
2019-04-20T22:06:02.358Z,80.80
2019-04-20T22:10:59.513Z,81.50
2019-04-20T22:16:01.415Z,83.10
2019-04-20T22:21:03.566Z,83.40
2019-04-20T22:26:03.951Z,83.40
2019-04-20T22:30:48.397Z,84.10
2019-04-20T22:35:49.772Z,85.10
2019-04-20T22:40:42.885Z,86.50
2019-04-20T22:45:42.926Z,87.80
2019-04-20T22:50:51.038Z,88.10
2019-04-20T22:56:00.363Z,88.00
2019-04-20T23:00:43.126Z,88.60
2019-04-20T23:05:29.168Z,89.40
2019-04-20T23:10:33.771Z,89.70
2019-04-20T23:15:25.958Z,90.40
2019-04-20T23:20:26.947Z,90.70
2019-04-20T23:25:20.948Z,90.90
2019-04-20T23:30:24.773Z,90.80
2019-04-20T23:35:18.465Z,91.10
2019-04-20T23:40:16.416Z,91.40
2019-04-20T23:45:38.780Z,91.60
2019-04-20T23:50:46.598Z,91.90
2019-04-20T23:55:41.513Z,92.30
